createdAt,value
2018-06-19T00:00:42.387Z,76.18
2018-06-19T00:01:42.345Z,76.47
2018-06-19T00:02:42.309Z,75.79
2018-06-19T00:03:42.265Z,75.99
2018-06-19T00:04:42.223Z,76.09
2018-06-19T00:05:42.186Z,76.09
2018-06-19T00:06:42.136Z,76.18
2018-06-19T00:07:42.098Z,76.28
2018-06-19T00:08:42.059Z,76.32
2018-06-19T00:09:42.017Z,76.09
2018-06-19T00:10:41.970Z,76.28
2018-06-19T00:11:41.928Z,76.28
2018-06-19T00:12:41.891Z,76.47
2018-06-19T00:13:41.846Z,76.18
2018-06-19T00:14:41.809Z,76.09
2018-06-19T00:15:41.772Z,76.09
2018-06-19T00:16:41.725Z,76.37
2018-06-19T00:17:41.685Z,76.61
2018-06-19T00:18:41.641Z,75.89
2018-06-19T00:19:41.599Z,76.37
2018-06-19T00:20:41.562Z,76.12
2018-06-19T00:21:41.515Z,76.47
2018-06-19T00:22:41.478Z,76.09
2018-06-19T00:23:41.434Z,75.89
2018-06-19T00:24:41.392Z,75.79
2018-06-19T00:25:41.398Z,76.12
2018-06-19T00:26:41.312Z,75.99
2018-06-19T00:27:41.270Z,76.32
2018-06-19T00:28:41.229Z,76.12
2018-06-19T00:29:41.188Z,76.09
2018-06-19T00:30:41.142Z,76.18
2018-06-19T00:31:41.102Z,76.03
2018-06-19T00:32:41.061Z,76.37
2018-06-19T00:33:41.018Z,76.51
2018-06-19T00:34:40.979Z,76.67
2018-06-19T00:35:40.938Z,76.18
2018-06-19T00:36:40.898Z,76.42
2018-06-19T00:37:40.855Z,76.09
2018-06-19T00:38:40.809Z,76.18
2018-06-19T00:39:40.769Z,76.09
2018-06-19T00:40:40.731Z,76.86
2018-06-19T00:41:40.689Z,76.28
2018-06-19T00:42:40.644Z,76.22
2018-06-19T00:43:40.606Z,76.18
2018-06-19T00:44:40.562Z,76.28
2018-06-19T00:45:40.520Z,76.70
2018-06-19T00:46:40.482Z,76.03
2018-06-19T00:47:40.440Z,76.12
2018-06-19T00:48:40.399Z,76.67
2018-06-19T00:49:40.358Z,76.61
2018-06-19T00:50:40.318Z,76.22
2018-06-19T00:51:40.270Z,76.67
2018-06-19T00:52:40.230Z,76.32
2018-06-19T00:53:40.185Z,76.18
2018-06-19T00:54:40.150Z,76.03
2018-06-19T00:55:40.107Z,75.93
2018-06-19T00:56:40.064Z,76.61
2018-06-19T00:57:40.022Z,76.32
2018-06-19T00:58:39.984Z,76.09
2018-06-19T00:59:39.945Z,75.93
2018-06-19T01:00:39.901Z,76.03
2018-06-19T01:01:39.860Z,75.84
2018-06-19T01:02:39.814Z,76.12
2018-06-19T01:03:39.774Z,75.84
2018-06-19T01:04:39.733Z,76.22
2018-06-19T01:05:39.690Z,76.32
2018-06-19T01:06:39.653Z,76.22
2018-06-19T01:07:39.611Z,76.32
2018-06-19T01:08:39.569Z,76.32
2018-06-19T01:09:39.530Z,76.32
2018-06-19T01:10:39.483Z,76.51
2018-06-19T01:11:39.443Z,76.12
2018-06-19T01:12:39.400Z,76.70
2018-06-19T01:13:39.362Z,76.51
2018-06-19T01:14:39.317Z,76.37
2018-06-19T01:15:39.278Z,76.51
2018-06-19T01:16:39.236Z,76.61
2018-06-19T01:17:39.197Z,76.42
2018-06-19T01:18:39.157Z,76.32
2018-06-19T01:19:39.114Z,75.93
2018-06-19T01:20:39.073Z,76.32
2018-06-19T01:21:39.031Z,75.93
2018-06-19T01:22:38.985Z,76.32
2018-06-19T01:23:38.948Z,76.12
2018-06-19T01:24:38.904Z,75.84
2018-06-19T01:25:38.859Z,76.03
2018-06-19T01:26:38.825Z,76.12
2018-06-19T01:27:38.780Z,76.03
2018-06-19T01:28:38.782Z,76.22
2018-06-19T01:29:38.695Z,76.61
2018-06-19T01:30:38.658Z,76.42
2018-06-19T01:31:38.617Z,76.22
2018-06-19T01:32:38.575Z,76.09
2018-06-19T01:33:38.535Z,76.47
2018-06-19T01:34:38.488Z,76.12
2018-06-19T01:35:38.447Z,76.51
2018-06-19T01:36:38.406Z,76.22
2018-06-19T01:37:38.364Z,76.61
2018-06-19T01:38:38.327Z,76.18
2018-06-19T01:39:38.288Z,76.47
2018-06-19T01:40:38.243Z,76.47
2018-06-19T01:41:38.203Z,76.28
2018-06-19T01:42:38.155Z,76.42
2018-06-19T01:43:38.117Z,76.28
2018-06-19T01:44:38.079Z,76.47
2018-06-19T01:45:38.038Z,76.22
2018-06-19T01:46:37.995Z,76.32
2018-06-19T01:47:37.952Z,76.37
2018-06-19T01:48:37.908Z,76.57
2018-06-19T01:49:37.867Z,76.42
2018-06-19T01:50:37.832Z,76.28
2018-06-19T01:51:37.789Z,76.28
2018-06-19T01:52:37.746Z,75.99
2018-06-19T01:53:37.707Z,76.22
2018-06-19T01:54:37.661Z,76.28
2018-06-19T01:55:37.619Z,76.18
2018-06-19T01:56:37.578Z,76.28
2018-06-19T01:57:37.535Z,76.32
2018-06-19T01:58:37.499Z,75.89
2018-06-19T01:59:37.456Z,76.09
2018-06-19T02:00:37.413Z,76.18
2018-06-19T02:01:37.369Z,75.79
2018-06-19T02:02:37.332Z,76.03
2018-06-19T02:03:37.344Z,76.42
2018-06-19T02:04:37.250Z,76.22
2018-06-19T02:05:37.209Z,76.47
2018-06-19T02:06:37.162Z,76.57
2018-06-19T02:07:37.121Z,75.89
2018-06-19T02:08:37.084Z,76.28
2018-06-19T02:09:37.037Z,76.57
2018-06-19T02:10:37.001Z,76.42
2018-06-19T02:11:36.961Z,76.28
2018-06-19T02:12:36.917Z,76.09
2018-06-19T02:13:36.880Z,76.09
2018-06-19T02:14:36.831Z,76.18
2018-06-19T02:15:36.789Z,75.89
2018-06-19T02:16:36.753Z,76.28
2018-06-19T02:17:36.721Z,76.67
2018-06-19T02:18:36.666Z,75.99
2018-06-19T02:19:36.625Z,76.37
2018-06-19T02:20:36.583Z,76.47
2018-06-19T02:21:36.541Z,76.76
2018-06-19T02:22:36.502Z,76.42
2018-06-19T02:23:36.461Z,77.00
2018-06-19T02:24:36.420Z,76.57
2018-06-19T02:25:36.378Z,77.00
2018-06-19T02:26:36.333Z,77.00
2018-06-19T02:27:36.293Z,76.76
2018-06-19T02:28:36.253Z,77.00
2018-06-19T02:29:36.207Z,76.61
2018-06-19T02:30:36.217Z,76.03
2018-06-19T02:31:36.130Z,76.22
2018-06-19T02:32:36.086Z,76.03
2018-06-19T02:33:36.049Z,74.38
2018-06-19T02:34:36.011Z,75.64
2018-06-19T02:35:35.964Z,73.58
2018-06-19T02:36:35.921Z,71.74
2018-06-19T02:37:35.881Z,70.72
2018-06-19T02:38:35.836Z,71.16
2018-06-19T02:39:35.806Z,72.74
2018-06-19T02:40:35.799Z,72.90
2018-06-19T02:41:35.711Z,73.32
2018-06-19T02:42:35.678Z,72.42
2018-06-19T02:43:35.632Z,71.94
2018-06-19T02:44:35.591Z,70.62
2018-06-19T02:45:35.552Z,68.94
2018-06-19T02:46:35.503Z,70.78
2018-06-19T02:47:35.464Z,72.03
2018-06-19T02:48:35.435Z,71.36
2018-06-19T02:49:35.387Z,70.48
2018-06-19T02:50:35.338Z,70.20
2018-06-19T02:51:35.300Z,72.06
2018-06-19T02:52:35.258Z,70.58
2018-06-19T02:53:35.213Z,71.16
2018-06-19T02:54:35.177Z,70.78
2018-06-19T02:55:35.134Z,69.42
2018-06-19T02:56:35.092Z,69.62
2018-06-19T02:57:35.056Z,70.78
2018-06-19T02:58:35.007Z,70.78
2018-06-19T02:59:34.966Z,71.16
2018-06-19T03:00:34.929Z,69.62
2018-06-19T03:01:34.885Z,70.97
2018-06-19T03:02:34.889Z,71.36
2018-06-19T03:03:34.804Z,70.00
2018-06-19T03:04:34.803Z,70.29
2018-06-19T03:05:34.713Z,70.29
2018-06-19T03:06:34.685Z,70.68
2018-06-19T03:07:34.636Z,70.68
2018-06-19T03:08:34.595Z,69.52
2018-06-19T03:09:34.554Z,69.81
2018-06-19T03:10:34.509Z,70.68
2018-06-19T03:11:34.470Z,70.10
2018-06-19T03:12:34.425Z,70.48
2018-06-19T03:13:34.390Z,69.04
2018-06-19T03:14:34.348Z,70.39
2018-06-19T03:15:34.309Z,70.39
2018-06-19T03:16:34.262Z,69.90
2018-06-19T03:17:34.227Z,69.62
2018-06-19T03:18:34.175Z,70.87
2018-06-19T03:19:34.139Z,71.26
2018-06-19T03:20:34.096Z,72.03
2018-06-19T03:21:34.056Z,72.61
2018-06-19T03:22:34.011Z,72.42
2018-06-19T03:23:33.972Z,72.42
2018-06-19T03:24:33.928Z,72.61
2018-06-19T03:25:33.881Z,72.42
2018-06-19T03:26:33.848Z,72.52
2018-06-19T03:27:33.806Z,72.32
2018-06-19T03:28:33.763Z,73.00
2018-06-19T03:29:33.723Z,72.42
2018-06-19T03:30:33.683Z,72.71
2018-06-19T03:31:33.637Z,73.00
2018-06-19T03:32:33.598Z,72.80
2018-06-19T03:33:33.552Z,73.00
2018-06-19T03:34:33.517Z,72.90
2018-06-19T03:35:33.473Z,72.90
2018-06-19T03:36:33.430Z,73.19
2018-06-19T03:37:33.386Z,72.90
2018-06-19T03:38:33.396Z,73.09
2018-06-19T03:39:33.308Z,73.09
2018-06-19T03:40:33.266Z,73.28
2018-06-19T03:41:33.226Z,73.58
